Time;durP1;ratioP1;P1;durP2;ratioP2;P2;SDS_P1;SDS_P2;PMS_P1;PMS_P2;Temp;Humidity;BMP_temperature;BMP_pressure;BME280_temperature;BME280_humidity;BME280_pressure;Samples;Min_cycle;Max_cycle;Signal;HPM_P1;HPM_P2
2022/05/17 00:00:10;;;;;;;5.73;2.17;;;;;;;12.30;50.26;100253.34;4234492;28;20242;-66
2022/05/17 00:02:36;;;;;;;6.63;2.00;;;;;;;12.35;49.54;100264.34;4238323;28;20371;-66
2022/05/17 00:05:04;;;;;;;3.77;1.80;;;;;;;12.38;49.26;100264.03;4239901;28;20409;-66
2022/05/17 00:07:30;;;;;;;5.73;1.90;;;;;;;12.37;48.81;100258.88;4221484;28;20235;-67
2022/05/17 00:09:57;;;;;;;7.33;2.10;;;;;;;12.38;48.85;100260.53;4242137;28;23692;-68
2022/05/17 00:12:23;;;;;;;6.03;2.00;;;;;;;12.33;48.25;100270.84;4234766;28;20254;-66
2022/05/17 00:14:50;;;;;;;3.00;1.70;;;;;;;12.28;47.62;100266.00;4238700;28;20247;-66
2022/05/17 00:17:16;;;;;;;4.63;1.87;;;;;;;12.27;47.28;100263.47;4236831;28;20249;-65
2022/05/17 00:19:43;;;;;;;3.93;1.50;;;;;;;12.14;47.31;100266.59;4239078;28;21658;-65
2022/05/17 00:22:10;;;;;;;2.43;1.40;;;;;;;12.12;47.49;100255.25;4230529;28;20243;-66
2022/05/17 00:24:36;;;;;;;4.70;1.80;;;;;;;12.11;47.80;100256.25;4236327;28;25684;-66
2022/05/17 00:27:04;;;;;;;4.83;1.70;;;;;;;12.06;47.51;100255.88;4244803;28;20230;-65
2022/05/17 00:29:31;;;;;;;3.60;1.40;;;;;;;12.04;47.31;100253.38;4239015;28;20278;-67
2022/05/17 00:31:57;;;;;;;6.47;1.60;;;;;;;11.94;47.16;100253.50;4230377;28;20276;-68
2022/05/17 00:34:24;;;;;;;9.33;2.03;;;;;;;11.93;47.14;100254.50;4229896;28;21903;-67
2022/05/17 00:36:51;;;;;;;4.87;1.63;;;;;;;11.88;47.49;100263.97;4234832;28;20228;-66
2022/05/17 00:39:17;;;;;;;6.93;1.57;;;;;;;11.90;47.38;100252.16;4236975;28;21212;-67
2022/05/17 00:41:44;;;;;;;6.67;1.90;;;;;;;11.71;48.56;100253.16;4239905;28;20369;-66
2022/05/17 00:47:02;;;;;;;6.47;1.70;;;;;;;11.66;48.40;100252.81;4249062;28;20300;-65
2022/05/17 00:49:32;;;;;;;3.27;1.50;;;;;;;11.65;47.88;100250.28;4234289;28;20414;-65
2022/05/17 00:52:02;;;;;;;3.77;1.60;;;;;;;11.56;48.45;100254.72;4223678;28;20238;-65
2022/05/17 00:54:29;;;;;;;3.70;1.30;;;;;;;11.50;48.91;100255.38;4229635;28;21634;-66
2022/05/17 00:57:02;;;;;;;6.23;1.60;;;;;;;11.38;48.50;100247.59;4222816;28;20234;-66
2022/05/17 00:59:29;;;;;;;5.70;1.53;;;;;;;11.44;48.15;100250.63;4222543;28;20238;-66
2022/05/17 01:01:56;;;;;;;4.93;1.43;;;;;;;11.44;48.59;100250.63;4240247;28;22804;-66
2022/05/17 01:04:23;;;;;;;3.33;1.77;;;;;;;11.36;48.85;100249.59;4221390;28;23326;-66
2022/05/17 01:06:55;;;;;;;3.90;1.63;;;;;;;11.31;48.86;100241.22;4221524;28;23076;-67
2022/05/17 01:09:23;;;;;;;5.67;1.70;;;;;;;11.24;48.85;100240.19;4232544;28;23418;-66
2022/05/17 01:11:49;;;;;;;5.03;1.40;;;;;;;11.19;50.11;100237.97;4223855;28;20238;-66
2022/05/17 01:17:02;;;;;;;2.37;1.50;;;;;;;11.17;50.60;100239.13;4228573;28;20239;-72
2022/05/17 01:19:29;;;;;;;5.43;1.80;;;;;;;11.15;50.85;100241.94;4235128;28;20242;-70
2022/05/17 01:21:56;;;;;;;6.33;1.50;;;;;;;11.08;50.54;100243.53;4223062;28;20625;-71
2022/05/17 01:24:24;;;;;;;5.47;1.77;;;;;;;11.04;51.76;100244.81;4244543;28;23000;-70
2022/05/17 01:27:05;;;;;;;4.10;1.80;;;;;;;11.01;51.78;100239.81;4239167;28;20238;-69
2022/05/17 01:29:41;;;;;;;4.27;1.67;;;;;;;10.91;52.28;100239.03;4228475;28;21876;-71
2022/05/17 01:32:09;;;;;;;4.17;1.50;;;;;;;10.95;52.04;100243.91;4245084;28;20813;-70
2022/05/17 01:34:36;;;;;;;4.10;1.67;;;;;;;10.92;52.02;100238.88;4243246;28;21946;-71
2022/05/17 01:37:04;;;;;;;7.73;2.17;;;;;;;10.88;52.28;100245.50;4229557;28;20228;-70
2022/05/17 01:39:32;;;;;;;3.60;1.93;;;;;;;10.88;51.88;100250.81;4240722;28;20231;-52
2022/05/17 01:41:59;;;;;;;4.83;1.60;;;;;;;10.90;51.92;100248.84;4234214;28;23030;-75
2022/05/17 01:44:25;;;;;;;4.40;1.73;;;;;;;10.87;52.11;100245.66;4228783;28;22290;-71
2022/05/17 01:46:52;;;;;;;10.33;1.93;;;;;;;10.72;52.45;100240.00;4237072;28;21198;-71
2022/05/17 01:49:19;;;;;;;6.23;1.40;;;;;;;10.70;52.41;100248.16;4232504;28;20276;-71
2022/05/17 01:51:45;;;;;;;9.20;1.53;;;;;;;10.71;52.20;100243.66;4228439;28;22961;-71
2022/05/17 01:54:12;;;;;;;5.90;1.80;;;;;;;10.64;52.61;100247.91;4233789;28;20310;-71
2022/05/17 01:56:39;;;;;;;4.90;1.60;;;;;;;10.57;52.59;100243.19;4238883;28;20271;-71
2022/05/17 01:59:05;;;;;;;4.30;1.50;;;;;;;10.44;52.53;100253.38;4234546;28;20249;-70
2022/05/17 02:01:32;;;;;;;5.67;1.80;;;;;;;10.42;52.82;100255.34;4239570;28;20476;-69
2022/05/17 02:03:59;;;;;;;4.37;1.67;;;;;;;10.44;52.62;100256.03;4241266;28;20479;-71
2022/05/17 02:06:26;;;;;;;4.13;1.87;;;;;;;10.37;53.02;100254.91;4227814;28;22444;-71
2022/05/17 02:08:52;;;;;;;4.53;1.40;;;;;;;10.26;53.34;100257.78;4239884;28;20230;-70
2022/05/17 02:11:19;;;;;;;7.73;2.00;;;;;;;10.20;53.31;100256.50;4258242;28;20690;-71
2022/05/17 02:13:45;;;;;;;6.77;1.93;;;;;;;10.15;53.86;100264.94;4242777;28;20292;-73
2022/05/17 02:16:13;;;;;;;3.77;1.57;;;;;;;10.14;54.33;100265.09;4230786;28;20235;-69
2022/05/17 02:18:45;;;;;;;3.63;1.60;;;;;;;10.05;54.31;100265.97;4255000;28;22115;-71
2022/05/17 02:21:12;;;;;;;3.37;1.67;;;;;;;9.95;54.44;100263.34;4240906;28;21614;-69
2022/05/17 02:23:38;;;;;;;5.63;1.60;;;;;;;9.98;54.62;100270.19;4240048;28;20305;-71
2022/05/17 02:26:05;;;;;;;4.93;1.67;;;;;;;9.94;54.45;100273.13;4247880;28;21232;-73
2022/05/17 02:28:32;;;;;;;5.57;1.70;;;;;;;9.85;54.65;100268.69;4243801;28;20226;-71
2022/05/17 02:30:58;;;;;;;4.53;1.83;;;;;;;9.84;55.01;100266.19;4226930;28;20232;-71
2022/05/17 02:33:25;;;;;;;4.23;1.80;;;;;;;9.78;55.10;100269.41;4235179;28;21294;-71
2022/05/17 02:35:51;;;;;;;2.90;1.50;;;;;;;9.81;54.46;100271.75;4233847;28;20249;-68
2022/05/17 02:38:18;;;;;;;4.27;1.50;;;;;;;9.78;54.39;100277.38;4244088;28;20249;-67
2022/05/17 02:40:44;;;;;;;3.57;1.53;;;;;;;9.68;54.92;100272.91;4244430;28;20234;-68
2022/05/17 02:43:13;;;;;;;6.93;1.90;;;;;;;9.65;54.52;100283.84;4238787;28;20241;-68
2022/05/17 02:45:40;;;;;;;4.07;1.70;;;;;;;9.60;54.97;100280.78;4248239;28;22279;-67
2022/05/17 02:48:07;;;;;;;2.43;1.20;;;;;;;9.60;55.46;100280.78;4250942;28;21374;-68
2022/05/17 02:50:34;;;;;;;4.57;1.93;;;;;;;9.66;54.69;100293.47;4254305;28;21791;-71
2022/05/17 02:53:00;;;;;;;4.93;1.43;;;;;;;9.58;54.63;100293.38;4266551;28;20278;-67
2022/05/17 02:55:26;;;;;;;4.83;1.40;;;;;;;9.59;55.07;100289.72;4259544;28;21318;-69
2022/05/17 02:57:53;;;;;;;4.30;1.67;;;;;;;9.51;55.33;100294.91;4242503;28;20604;-67
2022/05/17 03:00:20;;;;;;;3.47;1.53;;;;;;;9.54;55.18;100291.97;4250190;28;20302;-67
2022/05/17 03:02:46;;;;;;;3.33;1.40;;;;;;;9.48;55.44;100293.38;4239643;28;20239;-67
2022/05/17 03:05:13;;;;;;;4.87;1.90;;;;;;;9.39;55.67;100293.38;4258331;28;22269;-69
2022/05/17 03:07:41;;;;;;;4.03;1.40;;;;;;;9.40;55.60;100295.06;4246107;28;20472;-67
2022/05/17 03:10:09;;;;;;;4.87;1.40;;;;;;;9.34;56.21;100300.91;4248742;28;20241;-67
2022/05/17 03:12:36;;;;;;;9.13;1.73;;;;;;;9.25;56.92;100295.50;4239990;28;20261;-67
2022/05/17 03:15:03;;;;;;;5.43;1.73;;;;;;;9.26;56.30;100299.81;4238450;28;20227;-67
2022/05/17 03:17:30;;;;;;;2.33;1.50;;;;;;;9.41;56.29;100299.38;4244163;28;20226;-66
2022/05/17 03:19:57;;;;;;;4.87;1.40;;;;;;;9.31;56.03;100296.72;4232823;28;21275;-66
2022/05/17 03:22:24;;;;;;;5.50;1.60;;;;;;;9.27;56.49;100301.50;4245507;28;21830;-68
2022/05/17 03:24:51;;;;;;;4.80;1.20;;;;;;;9.24;56.47;100300.94;4245577;28;21173;-68
2022/05/17 03:27:38;;;;;;;4.20;1.37;;;;;;;9.32;55.98;100298.44;4210219;28;20252;-67
2022/05/17 03:30:05;;;;;;;2.70;1.23;;;;;;;9.14;56.94;100306.22;4222450;28;20227;-67
2022/05/17 03:32:32;;;;;;;7.70;1.40;;;;;;;9.28;56.25;100300.50;4241497;28;20310;-65
2022/05/17 03:34:59;;;;;;;4.37;1.60;;;;;;;9.25;56.19;100308.75;4219021;28;20434;-67
2022/05/17 03:37:25;;;;;;;3.23;1.37;;;;;;;9.28;55.23;100303.16;4230774;28;22096;-68
2022/05/17 03:39:52;;;;;;;4.87;1.80;;;;;;;9.27;55.34;100300.63;4236319;28;20325;-66
2022/05/17 03:42:19;;;;;;;5.00;1.37;;;;;;;9.28;54.92;100303.16;4246641;28;21799;-67
2022/05/17 03:44:46;;;;;;;5.17;1.23;;;;;;;9.33;53.83;100300.09;4236975;28;20363;-67
2022/05/17 03:47:13;;;;;;;3.90;1.27;;;;;;;9.27;53.76;100296.19;4243591;28;22261;-67
2022/05/17 03:49:39;;;;;;;3.97;1.20;;;;;;;9.22;53.72;100294.91;4233946;28;21604;-66
2022/05/17 03:52:08;;;;;;;3.37;1.10;;;;;;;9.25;52.67;100303.44;4244661;28;21198;-67
2022/05/17 03:54:36;;;;;;;3.97;1.20;;;;;;;9.19;51.53;100288.06;4232005;28;21334;-66
2022/05/17 03:57:03;;;;;;;4.27;1.00;;;;;;;9.24;49.96;100306.22;4252123;28;20273;-65
2022/05/17 03:59:30;;;;;;;4.43;0.90;;;;;;;9.34;49.25;100300.91;4230464;28;26018;-65
2022/05/17 04:01:57;;;;;;;2.83;1.00;;;;;;;9.28;48.86;100302.31;4238898;28;21431;-66
2022/05/17 04:04:24;;;;;;;4.67;1.27;;;;;;;9.40;48.10;100308.34;4246770;28;20226;-66
2022/05/17 04:06:51;;;;;;;2.47;1.00;;;;;;;9.38;48.00;100304.97;4225581;28;20351;-67
2022/05/17 04:09:17;;;;;;;3.60;1.00;;;;;;;9.38;48.13;100307.63;4240665;28;21701;-66
2022/05/17 04:11:44;;;;;;;2.87;1.00;;;;;;;9.28;49.01;100303.16;4238219;28;21922;-67
2022/05/17 04:14:11;;;;;;;3.97;1.10;;;;;;;9.38;48.19;100304.97;4246455;28;20232;-65
2022/05/17 04:16:39;;;;;;;2.60;0.90;;;;;;;9.32;48.26;100311.69;4234930;28;20250;-67
2022/05/17 04:19:06;;;;;;;3.23;1.13;;;;;;;9.44;47.49;100310.56;4239429;28;23164;-67
2022/05/17 04:21:34;;;;;;;3.93;1.00;;;;;;;9.56;46.82;100310.44;4265182;28;20735;-67
2022/05/17 04:24:00;;;;;;;3.77;1.00;;;;;;;9.69;47.24;100311.81;4232067;28;21235;-67
2022/05/17 04:26:27;;;;;;;3.40;1.03;;;;;;;9.80;46.50;100315.28;4240122;28;20240;-67
2022/05/17 04:28:53;;;;;;;5.90;1.00;;;;;;;9.91;46.06;100321.28;4231258;28;21705;-66
2022/05/17 04:31:21;;;;;;;11.50;1.40;;;;;;;9.95;45.74;100321.84;4245876;28;20226;-69
2022/05/17 04:33:47;;;;;;;7.03;1.10;;;;;;;9.98;45.35;100340.16;4238261;28;20655;-68
2022/05/17 04:36:14;;;;;;;2.57;1.03;;;;;;;9.96;46.03;100344.75;4250342;28;20628;-68
2022/05/17 04:38:41;;;;;;;6.27;1.10;;;;;;;9.98;45.48;100349.94;4238943;28;21057;-67
2022/05/17 04:41:09;;;;;;;6.73;1.30;;;;;;;9.97;45.45;100338.44;4245082;28;20230;-68
2022/05/17 04:43:36;;;;;;;4.40;1.10;;;;;;;10.00;45.79;100346.16;4239182;28;20961;-68
2022/05/17 04:46:02;;;;;;;1.57;0.90;;;;;;;10.05;46.14;100343.91;4253762;28;20266;-68
2022/05/17 04:48:29;;;;;;;2.53;1.03;;;;;;;10.14;47.05;100359.00;4237909;28;20227;-67
2022/05/17 04:50:56;;;;;;;3.63;1.00;;;;;;;10.24;47.56;100358.13;4237945;28;20231;-67
2022/05/17 04:53:26;;;;;;;3.13;1.30;;;;;;;10.21;47.00;100356.59;4260874;28;21289;-68
2022/05/17 04:55:53;;;;;;;2.43;1.20;;;;;;;10.21;46.43;100355.75;4238940;28;20240;-66
2022/05/17 04:58:19;;;;;;;2.57;1.23;;;;;;;10.03;47.59;100361.81;4254730;28;22289;-68
2022/05/17 05:00:46;;;;;;;5.37;1.30;;;;;;;9.90;48.68;100362.13;4248772;28;20239;-68
2022/05/17 05:03:12;;;;;;;4.67;1.30;;;;;;;10.01;48.76;100369.09;4241538;28;21255;-67
2022/05/17 05:05:39;;;;;;;6.20;1.50;;;;;;;9.94;48.58;100363.50;4226309;28;20222;-67
2022/05/17 05:08:06;;;;;;;6.93;1.20;;;;;;;9.99;48.45;100365.72;4249747;28;20261;-67
2022/05/17 05:10:32;;;;;;;7.47;1.47;;;;;;;9.93;49.24;100361.00;4248096;28;20231;-68
2022/05/17 05:12:59;;;;;;;9.47;1.47;;;;;;;9.95;49.60;100361.72;4239395;28;22911;-67
2022/05/17 05:15:26;;;;;;;7.80;1.60;;;;;;;10.11;49.16;100358.44;4243445;28;21573;-67
2022/05/17 05:17:52;;;;;;;8.17;1.80;;;;;;;10.36;47.48;100359.66;4259411;28;20360;-67
2022/05/17 05:20:19;;;;;;;8.00;1.57;;;;;;;10.56;48.17;100363.91;4238444;28;20226;-66
2022/05/17 05:22:45;;;;;;;9.47;1.57;;;;;;;10.70;45.89;100367.94;4227413;28;22388;-67
2022/05/17 05:25:13;;;;;;;8.57;1.60;;;;;;;10.89;45.45;100374.97;4241142;28;20293;-67
2022/05/17 05:27:41;;;;;;;9.57;1.27;;;;;;;10.96;42.98;100372.56;4251693;28;20742;-67
2022/05/17 05:30:12;;;;;;;4.00;1.00;;;;;;;11.06;43.55;100375.16;4231805;28;22652;-69
2022/05/17 05:32:38;;;;;;;3.43;1.10;;;;;;;11.16;43.08;100370.59;4232425;28;20289;-68
2022/05/17 05:35:05;;;;;;;9.63;1.63;;;;;;;11.30;42.42;100375.41;4264256;28;20241;-71
2022/05/17 05:37:32;;;;;;;5.37;1.27;;;;;;;11.34;42.75;100374.13;4248377;28;21232;-70
2022/05/17 05:39:59;;;;;;;3.63;1.30;;;;;;;11.51;43.04;100380.44;4258921;28;20227;-69
2022/05/17 05:42:25;;;;;;;13.90;1.37;;;;;;;12.29;41.05;100381.56;4239293;28;20380;-69
2022/05/17 05:44:52;;;;;;;2.73;1.17;;;;;;;12.63;40.38;100373.59;4236612;28;20238;-71
2022/05/17 05:47:19;;;;;;;3.40;1.00;;;;;;;13.35;39.08;100387.38;4262119;28;20725;-69
2022/05/17 05:49:46;;;;;;;3.73;1.40;;;;;;;14.20;36.69;100388.88;4241284;28;20223;-70
2022/05/17 05:52:15;;;;;;;18.37;1.53;;;;;;;14.24;36.04;100391.06;4254778;28;20273;-68
2022/05/17 05:54:41;;;;;;;6.00;1.30;;;;;;;14.03;35.99;100394.25;4245878;28;25597;-69
2022/05/17 05:57:08;;;;;;;3.07;1.10;;;;;;;13.55;35.51;100395.09;4268745;28;20269;-67
2022/05/17 05:59:35;;;;;;;5.60;1.27;;;;;;;13.60;35.19;100396.28;4240594;28;21917;-69
2022/05/17 06:02:03;;;;;;;5.43;1.30;;;;;;;12.88;34.40;100390.56;4242396;28;20229;-67
2022/05/17 06:04:30;;;;;;;5.93;1.30;;;;;;;12.49;36.28;100391.03;4239916;28;20274;-70
2022/05/17 06:06:57;;;;;;;5.37;1.13;;;;;;;12.96;36.28;100395.06;4240910;28;20301;-72
2022/05/17 06:09:25;;;;;;;6.53;1.10;;;;;;;14.61;34.12;100405.75;4244840;28;20372;-70
2022/05/17 06:11:52;;;;;;;10.53;1.30;;;;;;;15.33;32.04;100420.81;4246705;28;21882;-69
2022/05/17 06:14:22;;;;;;;7.03;1.20;;;;;;;14.99;32.40;100413.97;4261159;28;20308;-69
2022/05/17 06:16:50;;;;;;;11.20;1.43;;;;;;;15.76;31.19;100426.63;4249733;28;20274;-71
2022/05/17 06:19:17;;;;;;;6.97;0.97;;;;;;;16.13;30.84;100428.50;4257073;28;21655;-72
2022/05/17 06:21:44;;;;;;;3.93;0.97;;;;;;;15.90;29.78;100428.53;4261617;28;20228;-71
2022/05/17 06:24:11;;;;;;;7.03;1.30;;;;;;;16.29;29.89;100424.81;4254023;28;20296;-71
2022/05/17 06:26:37;;;;;;;5.17;1.20;;;;;;;16.25;28.79;100436.97;4235689;28;20226;-71
2022/05/17 06:29:04;;;;;;;4.43;1.10;;;;;;;15.24;30.31;100428.09;4262406;28;23403;-70
2022/05/17 06:31:31;;;;;;;4.97;1.10;;;;;;;16.08;30.10;100430.88;4240668;28;20227;-69
2022/05/17 06:33:58;;;;;;;7.47;1.00;;;;;;;16.22;29.22;100434.63;4265062;28;20238;-73
2022/05/17 06:36:24;;;;;;;15.30;1.23;;;;;;;16.54;29.26;100436.16;4269984;28;20238;-70
2022/05/17 06:39:11;;;;;;;6.17;1.10;;;;;;;17.28;27.68;100433.47;4255455;28;20238;-70
2022/05/17 06:41:37;;;;;;;4.30;1.83;;;;;;;17.43;27.44;100435.28;4232806;28;21197;-72
2022/05/17 06:44:06;;;;;;;6.50;1.20;;;;;;;18.02;26.25;100435.06;4240824;28;22797;-69
2022/05/17 06:46:33;;;;;;;4.27;1.00;;;;;;;18.42;25.25;100435.38;4236025;28;20658;-70
2022/05/17 06:48:59;;;;;;;3.53;1.07;;;;;;;18.74;25.18;100439.31;4251084;28;20331;-71
2022/05/17 06:51:26;;;;;;;3.53;0.90;;;;;;;19.16;23.26;100439.38;4263678;28;21311;-71
2022/05/17 06:53:52;;;;;;;3.03;1.00;;;;;;;18.27;24.02;100438.19;4242104;28;21545;-69
2022/05/17 06:56:19;;;;;;;2.93;0.83;;;;;;;19.40;22.78;100444.22;4239252;28;20256;-70
2022/05/17 06:58:45;;;;;;;10.60;1.30;;;;;;;19.91;22.55;100458.28;4240777;28;21051;-70
2022/05/17 07:01:12;;;;;;;3.60;0.80;;;;;;;21.16;21.30;100463.78;4243078;28;20304;-71
2022/05/17 07:03:39;;;;;;;7.97;0.80;;;;;;;19.98;21.71;100451.03;4221279;28;20239;-69
2022/05/17 07:06:05;;;;;;;6.00;0.87;;;;;;;20.11;21.47;100451.03;4232978;28;21600;-70
2022/05/17 07:08:32;;;;;;;2.00;0.63;;;;;;;21.03;20.58;100454.66;4239899;28;21385;-70
2022/05/17 07:13:44;;;;;;;7.87;0.80;;;;;;;22.25;19.40;100451.13;4242060;28;20327;-69
2022/05/17 07:16:11;;;;;;;12.43;0.93;;;;;;;20.59;20.50;100458.09;4245699;28;21356;-68
2022/05/17 07:18:37;;;;;;;4.87;0.90;;;;;;;18.54;22.82;100441.91;4270971;28;20262;-72
2022/05/17 07:21:04;;;;;;;3.93;1.00;;;;;;;19.25;22.51;100440.84;4262919;28;20307;-69
2022/05/17 07:23:31;;;;;;;5.00;1.30;;;;;;;18.59;21.83;100441.31;4264538;28;21192;-73
2022/05/17 07:25:58;;;;;;;6.57;0.80;;;;;;;18.21;22.46;100448.88;4255481;28;22043;-70
2022/05/17 07:28:25;;;;;;;9.00;1.53;;;;;;;18.16;23.77;100451.34;4250061;28;20258;-73
2022/05/17 07:30:52;;;;;;;7.17;1.43;;;;;;;18.06;23.64;100452.50;4233259;28;20262;-70
2022/05/17 07:33:19;;;;;;;6.73;1.00;;;;;;;17.98;23.39;100449.09;4241091;28;20234;-66
2022/05/17 07:35:45;;;;;;;5.77;1.00;;;;;;;16.26;26.11;100443.97;4282940;28;20233;-68
2022/05/17 07:38:12;;;;;;;3.63;1.23;;;;;;;16.07;26.91;100449.88;4246664;28;21730;-69
2022/05/17 07:40:41;;;;;;;5.77;0.90;;;;;;;15.85;27.78;100440.78;4238687;28;21329;-69
2022/05/17 07:43:09;;;;;;;6.20;0.90;;;;;;;15.96;27.20;100443.88;4250167;28;20242;-68
2022/05/17 07:45:36;;;;;;;4.37;0.90;;;;;;;16.10;27.85;100441.44;4247574;28;20838;-71
2022/05/17 07:48:03;;;;;;;9.73;1.00;;;;;;;15.88;25.12;100435.91;4248011;28;20223;-67
2022/05/17 07:50:30;;;;;;;3.47;0.50;;;;;;;15.96;26.50;100443.88;4245578;28;20266;-48
2022/05/17 07:52:56;;;;;;;3.60;0.67;;;;;;;15.25;26.72;100442.31;4267653;28;20347;-67
2022/05/17 07:55:23;;;;;;;4.37;0.67;;;;;;;15.44;26.74;100439.19;4255131;28;22191;-67
2022/05/17 07:57:50;;;;;;;6.47;0.80;;;;;;;15.52;26.91;100441.84;4246988;28;20244;-72
2022/05/17 08:00:16;;;;;;;3.43;0.80;;;;;;;15.66;27.12;100442.06;4266133;28;20235;-68
2022/05/17 08:02:43;;;;;;;5.23;0.77;;;;;;;15.84;26.73;100445.34;4235968;28;20615;-68
2022/05/17 08:05:10;;;;;;;7.80;0.80;;;;;;;15.40;27.08;100438.72;4259833;28;22787;-68
2022/05/17 08:07:38;;;;;;;8.17;1.00;;;;;;;15.95;26.69;100442.22;4247458;28;21792;-66
2022/05/17 08:10:05;;;;;;;4.00;0.50;;;;;;;15.95;27.03;100441.41;4242747;28;21741;-68
2022/05/17 08:12:32;;;;;;;7.37;0.73;;;;;;;16.21;26.42;100451.75;4255555;28;21312;-67
2022/05/17 08:14:59;;;;;;;8.13;0.90;;;;;;;15.71;27.19;100439.72;4262187;28;20261;-67
2022/05/17 08:17:26;;;;;;;1.83;0.70;;;;;;;15.90;27.73;100450.00;4258093;28;20357;-67
2022/05/17 08:19:52;;;;;;;3.60;1.00;;;;;;;15.98;27.39;100441.88;4276116;28;20699;-70
2022/05/17 08:22:19;;;;;;;4.40;0.97;;;;;;;16.01;27.04;100446.91;4243833;28;21738;-69
2022/05/17 08:27:45;;;;;;;1.97;0.70;;;;;;;16.02;26.64;100448.56;4255896;28;20450;-68
2022/05/17 08:30:17;;;;;;;6.90;1.20;;;;;;;15.91;26.68;100457.03;4229251;28;20227;-69
2022/05/17 08:35:42;;;;;;;10.73;0.90;;;;;;;15.85;27.32;100436.28;4260402;28;20334;-67
2022/05/17 08:38:11;;;;;;;2.10;0.77;;;;;;;15.72;26.84;100436.88;4228709;28;20233;-69
2022/05/17 08:40:56;;;;;;;5.33;0.80;;;;;;;15.62;27.83;100437.06;4249979;28;20673;-74
2022/05/17 08:43:28;;;;;;;5.07;1.20;;;;;;;15.86;28.81;100437.94;4275219;28;20345;-68
2022/05/17 08:45:58;;;;;;;7.57;1.07;;;;;;;16.19;27.58;100440.34;4257256;28;21812;-69
2022/05/17 08:48:30;;;;;;;1.60;0.60;;;;;;;16.35;24.83;100456.31;4255490;28;20306;-69
2022/05/17 08:50:57;;;;;;;4.20;1.00;;;;;;;16.14;25.48;100442.75;4239701;28;21847;-69
2022/05/17 08:53:24;;;;;;;3.87;0.90;;;;;;;16.10;25.78;100449.50;4251028;28;20245;-70
2022/05/17 08:55:51;;;;;;;2.17;0.70;;;;;;;16.07;26.69;100444.50;4261243;28;21232;-70
2022/05/17 08:58:24;;;;;;;6.60;1.17;;;;;;;15.94;27.48;100440.53;4279171;28;20286;-71
2022/05/17 09:01:06;;;;;;;3.27;0.80;;;;;;;16.10;27.75;100434.22;4245973;28;20500;-72
2022/05/17 09:03:48;;;;;;;2.60;0.83;;;;;;;16.12;27.49;100434.03;4279955;28;20236;-70
2022/05/17 09:06:22;;;;;;;2.50;0.73;;;;;;;15.98;27.74;100433.81;4267942;28;20231;-71
2022/05/17 09:09:07;;;;;;;4.13;0.80;;;;;;;16.19;28.12;100435.00;4244623;28;21814;-71
2022/05/17 09:11:37;;;;;;;5.80;0.80;;;;;;;16.48;27.56;100430.69;4256921;28;21108;-68
2022/05/17 09:14:23;;;;;;;2.37;0.80;;;;;;;16.67;27.46;100430.16;4264867;28;20485;-70
2022/05/17 09:17:00;;;;;;;3.60;0.90;;;;;;;16.82;26.14;100433.69;4255470;28;20234;-69
2022/05/17 09:19:27;;;;;;;5.27;0.60;;;;;;;16.80;27.79;100438.41;4260608;28;21466;-49
2022/05/17 09:21:58;;;;;;;3.40;0.73;;;;;;;17.22;26.15;100444.13;4251698;28;20328;-69
2022/05/17 09:24:29;;;;;;;2.33;0.70;;;;;;;17.62;26.02;100439.19;4272667;28;20222;-69
2022/05/17 09:27:10;;;;;;;3.03;0.60;;;;;;;16.65;25.62;100448.31;4243748;28;20234;-68
2022/05/17 09:29:39;;;;;;;4.43;0.73;;;;;;;16.56;26.92;100438.66;4247223;28;21264;-68
2022/05/17 09:32:08;;;;;;;1.40;0.70;;;;;;;16.77;27.59;100441.44;4272432;28;20234;-68
2022/05/17 09:34:36;;;;;;;6.53;1.00;;;;;;;16.70;27.04;100440.53;4250958;28;20288;-68
2022/05/17 09:37:09;;;;;;;2.67;1.00;;;;;;;17.18;26.61;100442.84;4250818;28;22078;-70
2022/05/17 09:39:36;;;;;;;6.63;1.20;;;;;;;17.71;26.72;100438.88;4248878;28;25386;-69
2022/05/17 09:42:06;;;;;;;4.40;1.10;;;;;;;18.01;26.89;100436.09;4258598;28;20238;-69
2022/05/17 09:44:42;;;;;;;2.27;0.70;;;;;;;18.01;25.61;100438.78;4256237;28;21189;-69
2022/05/17 09:47:21;;;;;;;3.17;1.00;;;;;;;17.87;24.79;100437.00;4247732;28;21557;-68
2022/05/17 09:52:35;;;;;;;8.90;0.73;;;;;;;17.20;25.83;100425.47;4250956;28;20245;-69
2022/05/17 09:55:23;;;;;;;5.10;0.70;;;;;;;17.37;25.89;100430.63;4262287;28;20235;-69
2022/05/17 09:58:03;;;;;;;2.83;0.53;;;;;;;17.65;25.46;100439.66;4261372;28;25441;-73
2022/05/17 10:00:33;;;;;;;2.57;1.00;;;;;;;17.51;25.55;100430.63;4255745;28;20284;-70
2022/05/17 10:03:01;;;;;;;6.43;0.90;;;;;;;17.58;25.71;100427.97;4237238;28;20255;-68
2022/05/17 10:05:30;;;;;;;8.13;0.60;;;;;;;17.39;26.04;100428.59;4261775;28;22221;-74
2022/05/17 10:08:00;;;;;;;7.83;1.13;;;;;;;17.28;27.43;100425.38;4265564;28;22463;-69
2022/05/17 10:10:30;;;;;;;5.57;0.73;;;;;;;17.61;26.00;100430.31;4282314;28;20274;-70
2022/05/17 10:13:13;;;;;;;3.03;0.60;;;;;;;17.07;25.56;100425.34;4273322;28;20524;-69
2022/05/17 10:15:43;;;;;;;4.13;0.60;;;;;;;17.25;25.15;100428.44;4275581;28;21505;-68
2022/05/17 10:18:33;;;;;;;2.13;0.60;;;;;;;17.20;24.63;100414.72;4273840;28;20580;-68
2022/05/17 10:21:34;;;;;;;8.50;1.00;;;;;;;16.98;24.84;100411.16;4238405;28;20774;-69
2022/05/17 10:24:26;;;;;;;4.77;0.70;;;;;;;16.68;25.32;100421.88;4256343;28;20237;-69
2022/05/17 10:27:02;;;;;;;2.87;0.70;;;;;;;16.82;25.21;100411.38;4264102;28;21091;-69
2022/05/17 10:29:38;;;;;;;4.33;0.70;;;;;;;17.11;26.05;100415.84;4264415;28;20244;-68
2022/05/17 10:32:19;;;;;;;2.47;0.93;;;;;;;17.48;24.78;100405.94;4232198;28;20356;-67
2022/05/17 10:35:32;;;;;;;2.77;0.70;;;;;;;17.55;23.65;100412.22;4254563;28;22371;-68
2022/05/17 10:38:21;;;;;;;2.50;0.53;;;;;;;17.16;24.03;100416.16;4243408;28;20674;-68
2022/05/17 10:40:51;;;;;;;4.17;0.90;;;;;;;17.44;24.49;100420.78;4265480;28;23285;-67
2022/05/17 10:43:24;;;;;;;6.17;0.60;;;;;;;17.33;23.68;100419.44;4243868;28;20659;-68
2022/05/17 10:46:00;;;;;;;2.83;0.60;;;;;;;17.05;23.54;100411.25;4240674;28;20291;-67
2022/05/17 10:48:35;;;;;;;4.27;0.50;;;;;;;17.16;23.21;100413.47;4221273;28;21402;-67
2022/05/17 10:51:07;;;;;;;2.57;0.83;;;;;;;16.71;24.02;100420.69;4249438;28;20230;-68
2022/05/17 10:53:44;;;;;;;3.37;0.53;;;;;;;16.52;25.60;100416.69;4246542;28;20238;-71
2022/05/17 10:56:35;;;;;;;2.93;0.87;;;;;;;16.67;24.40;100414.88;4244788;28;20524;-66
2022/05/17 10:59:18;;;;;;;1.77;0.70;;;;;;;16.86;25.05;100396.53;4270445;28;20242;-65
2022/05/17 11:02:03;;;;;;;3.67;0.80;;;;;;;17.26;24.77;100408.59;4229352;28;20318;-67
2022/05/17 11:04:57;;;;;;;1.13;0.57;;;;;;;16.86;24.78;100397.38;4235137;28;20222;-68
2022/05/17 11:07:40;;;;;;;7.10;0.70;;;;;;;16.66;24.86;100406.97;4257976;28;20233;-69
2022/05/17 11:10:20;;;;;;;4.53;0.70;;;;;;;16.82;25.05;100389.88;4266282;28;20230;-68
2022/05/17 11:12:50;;;;;;;1.20;0.50;;;;;;;17.05;24.54;100392.44;4244841;28;20261;-68
2022/05/17 11:15:21;;;;;;;6.67;0.70;;;;;;;17.32;24.77;100398.09;4230900;28;20234;-68
2022/05/17 11:17:54;;;;;;;2.30;0.60;;;;;;;17.65;24.07;100399.31;4261556;28;20234;-68
2022/05/17 11:20:27;;;;;;;0.97;0.53;;;;;;;17.40;23.94;100408.75;4279291;28;20235;-67
2022/05/17 11:23:37;;;;;;;1.97;0.57;;;;;;;16.86;23.69;100386.63;4246070;28;20239;-67
2022/05/17 11:26:07;;;;;;;2.83;0.40;;;;;;;16.70;24.41;100384.09;4293282;28;20515;-67
2022/05/17 11:29:11;;;;;;;3.23;0.80;;;;;;;17.10;24.23;100398.06;4246471;28;20226;-69
2022/05/17 11:31:59;;;;;;;1.50;0.50;;;;;;;17.54;24.05;100393.59;4265827;28;20335;-69
2022/05/17 11:34:28;;;;;;;1.97;0.60;;;;;;;17.83;23.50;100403.41;4235938;28;20238;-69
2022/05/17 11:37:08;;;;;;;2.83;0.50;;;;;;;17.68;24.27;100396.22;4242252;28;20238;-74
2022/05/17 11:39:39;;;;;;;4.47;0.83;;;;;;;18.14;24.54;100393.13;4245573;28;20233;-68
2022/05/17 11:42:11;;;;;;;4.30;0.80;;;;;;;18.06;22.94;100392.44;4249815;28;22193;-67
2022/05/17 11:44:48;;;;;;;4.73;0.70;;;;;;;17.81;24.37;100392.00;4252554;28;20836;-71
2022/05/17 11:47:30;;;;;;;4.00;0.60;;;;;;;17.85;24.42;100383.34;4275213;28;25575;-70
2022/05/17 11:50:14;;;;;;;7.23;0.80;;;;;;;18.21;24.36;100384.25;4258574;28;20389;-70
2022/05/17 11:52:44;;;;;;;2.07;0.60;;;;;;;18.11;24.47;100380.03;4259362;28;20299;-71
2022/05/17 11:55:15;;;;;;;4.53;0.80;;;;;;;18.45;24.03;100388.34;4256828;28;20230;-72